Time;durP1;ratioP1;P1;durP2;ratioP2;P2;SDS_P1;SDS_P2;PMS_P1;PMS_P2;Temp;Humidity;BMP_temperature;BMP_pressure;BME280_temperature;BME280_humidity;BME280_pressure;Samples;Min_cycle;Max_cycle;Signal;HPM_P1;HPM_P2
2022/05/10 00:01:21;;;;;;;1.60;1.30;;;;;;;18.06;25.36;101201.16;2159359;88;25953;-78
2022/05/10 00:05:19;;;;;;;1.25;1.07;;;;;;;18.01;25.36;101202.44;2204390;87;25863;-79
2022/05/10 00:09:30;;;;;;;3.80;1.20;;;;;;;17.98;25.43;101206.80;2274923;85;25723;-80
2022/05/10 00:12:16;;;;;;;3.92;0.95;;;;;;;17.96;25.38;101204.62;2254790;85;25714;-78
2022/05/10 00:16:15;;;;;;;1.77;1.50;;;;;;;17.93;25.40;101199.75;2246278;86;25727;-78
2022/05/10 00:20:12;;;;;;;;;;;;;;;;;;;;;
2022/05/10 00:23:54;;;;;;;;;;;;;;;;;;;;;
2022/05/10 00:27:22;;;;;;;2.55;1.25;;;;;;;17.79;25.48;101185.59;2240677;86;25747;-79
2022/05/10 00:31:14;;;;;;;;;;;;;;;;;;;;;
2022/05/10 00:34:43;;;;;;;3.60;1.52;;;;;;;17.77;25.54;101186.01;2179644;89;26406;-79
2022/05/10 00:38:26;;;;;;;3.92;1.50;;;;;;;17.74;25.58;101179.36;2115355;90;25912;-79
2022/05/10 00:42:35;;;;;;;2.30;1.35;;;;;;;17.70;25.68;101173.63;2167382;89;25772;-79
2022/05/10 00:46:31;;;;;;;3.40;1.65;;;;;;;17.70;25.71;101176.27;2183175;88;26218;-79
2022/05/10 00:50:53;;;;;;;4.62;1.70;;;;;;;17.61;25.70;101172.23;2130577;91;25910;-78
2022/05/10 00:55:21;;;;;;;2.40;1.80;;;;;;;17.52;25.66;101170.87;2095937;92;25848;-77
2022/05/10 00:59:26;;;;;;;;;;;;;;;;;;;;;
2022/05/10 01:03:27;;;;;;;2.37;1.30;;;;;;;17.44;25.60;101169.45;2234970;87;25732;-79
2022/05/10 01:07:52;;;;;;;;;;;;;;;;;;;;;
2022/05/10 01:15:37;;;;;;;3.87;1.10;;;;;;;17.37;25.69;101153.16;2039351;95;26018;-78
2022/05/10 01:19:06;;;;;;;2.15;1.27;;;;;;;17.36;25.76;101156.23;2036413;95;26126;-78
2022/05/10 01:22:48;;;;;;;2.10;1.22;;;;;;;17.33;25.97;101154.00;2035333;96;26354;-79
2022/05/10 01:26:56;;;;;;;1.98;1.30;;;;;;;17.30;26.06;101152.66;2035358;96;25882;-79
2022/05/10 01:30:32;;;;;;;3.03;1.60;;;;;;;17.28;26.22;101149.11;2026396;95;25940;-78
2022/05/10 01:34:43;;;;;;;4.17;1.98;;;;;;;17.22;26.36;101139.42;2019322;95;26495;-79
2022/05/10 01:43:46;;;;;;;;;;;;;;;;;;;;;
2022/05/10 01:46:59;;;;;;;2.25;1.30;;;;;;;17.11;26.70;101138.02;2111899;89;25775;-79
2022/05/10 01:51:20;;;;;;;3.87;1.70;;;;;;;17.07;26.84;101134.01;2141461;90;26061;-79
2022/05/10 01:55:32;;;;;;;4.12;1.22;;;;;;;17.00;26.81;101129.12;2097426;91;26033;-78
2022/05/10 01:58:54;;;;;;;1.80;1.15;;;;;;;16.89;26.70;101130.78;2084712;93;25747;-76
2022/05/10 02:02:40;;;;;;;;;;;;;;;;;;;;;
2022/05/10 02:11:20;;;;;;;2.27;1.27;;;;;;;16.71;26.48;101124.43;2070296;93;26275;-78
2022/05/10 02:15:09;;;;;;;2.45;1.52;;;;;;;16.65;26.46;101112.95;2035304;94;25728;-78
2022/05/10 02:19:00;;;;;;;6.30;2.33;;;;;;;16.55;26.42;101121.62;2055237;93;25778;-78
2022/05/10 02:23:01;;;;;;;1.70;1.37;;;;;;;16.45;26.43;101122.82;2047062;94;25778;-78
2022/05/10 02:26:47;;;;;;;3.98;1.37;;;;;;;16.47;26.43;101121.55;2021883;97;25973;-79
2022/05/10 02:30:34;;;;;;;;;;;;;;;;;;;;;
2022/05/10 02:33:58;;;;;;;4.30;1.55;;;;;;;16.47;26.47;101119.79;2043470;94;25495;-78
2022/05/10 02:41:46;;;;;;;3.62;2.05;;;;;;;16.40;26.62;101111.37;2045585;94;26123;-78
2022/05/10 02:45:59;;;;;;;2.20;1.45;;;;;;;16.27;26.72;101104.20;2049476;94;25730;-79
2022/05/10 02:54:19;;;;;;;4.92;2.40;;;;;;;16.08;26.86;101107.02;1878720;100;26166;-79
2022/05/10 03:02:56;;;;;;;;;;;;;;;;;;;;;
2022/05/10 03:10:40;;;;;;;2.15;1.95;;;;;;;15.98;27.11;101106.02;1827106;105;25583;-78
2022/05/10 03:14:48;;;;;;;4.10;2.30;;;;;;;16.02;27.13;101103.00;1830767;107;25881;-79
2022/05/10 03:18:49;;;;;;;2.52;1.82;;;;;;;16.02;27.11;101103.88;1824826;106;26027;-78
2022/05/10 03:23:16;;;;;;;;;;;;;;;;;;;;;
2022/05/10 03:27:10;;;;;;;4.17;2.42;;;;;;;15.95;27.19;101099.84;1783722;104;26059;-78
2022/05/10 03:31:01;;;;;;;1.90;1.57;;;;;;;15.93;27.19;101097.20;1802549;106;25828;-79
2022/05/10 03:39:14;;;;;;;4.05;2.22;;;;;;;15.95;27.34;101090.20;1820833;104;26499;-78
2022/05/10 03:43:27;;;;;;;1.92;1.62;;;;;;;15.88;27.43;101088.36;1820908;104;25962;-79
2022/05/10 03:47:34;;;;;;;2.70;1.77;;;;;;;15.81;27.51;101080.81;1817054;106;26303;-78
2022/05/10 03:51:28;;;;;;;3.92;2.37;;;;;;;15.72;27.64;101076.74;1834651;104;26053;-79
2022/05/10 03:54:52;;;;;;;3.45;2.02;;;;;;;15.64;27.76;101080.11;1844834;104;25961;-79
2022/05/10 03:58:35;;;;;;;5.45;1.90;;;;;;;15.53;27.97;101070.77;1861980;103;26182;-79
2022/05/10 04:02:04;;;;;;;6.65;2.27;;;;;;;15.51;28.05;101073.35;1769505;105;26002;-78
2022/05/10 04:09:52;;;;;;;8.03;2.12;;;;;;;15.51;28.22;101072.48;1807322;105;26326;-78
2022/05/10 04:13:38;;;;;;;3.92;1.90;;;;;;;15.47;28.26;101075.49;1809444;105;26096;-78
2022/05/10 04:21:37;;;;;;;2.92;1.70;;;;;;;15.45;28.34;101074.57;1773189;109;26661;-78
2022/05/10 04:25:16;;;;;;;3.75;1.75;;;;;;;15.42;28.49;101069.70;1775093;108;25865;-79
2022/05/10 04:28:44;;;;;;;4.15;2.35;;;;;;;15.40;28.54;101081.52;1812446;106;25961;-78
2022/05/10 04:32:40;;;;;;;;;;;;;;;;;;;;;
2022/05/10 04:36:24;;;;;;;4.17;1.75;;;;;;;15.45;28.63;101081.58;1819348;106;25766;-77
2022/05/10 04:43:43;;;;;;;2.12;1.70;;;;;;;15.46;28.62;101078.98;1847025;103;26075;-77
2022/05/10 04:47:14;;;;;;;7.70;3.02;;;;;;;15.49;28.62;101081.66;1885978;103;31582;-78
2022/05/10 04:50:37;;;;;;;2.40;2.00;;;;;;;15.50;28.65;101082.11;1900588;99;25920;-79
2022/05/10 04:54:04;;;;;;;3.75;2.17;;;;;;;15.55;28.69;101081.73;1960278;99;31160;-77
2022/05/10 04:57:32;;;;;;;4.70;2.05;;;;;;;15.62;28.84;101090.59;1958461;99;25942;-78
2022/05/10 05:01:22;;;;;;;3.08;1.98;;;;;;;15.65;28.88;101084.49;1943512;99;25821;-78
2022/05/10 05:04:43;;;;;;;4.20;1.98;;;;;;;15.66;28.91;101078.36;1944040;98;25948;-79
2022/05/10 05:08:05;;;;;;;3.27;2.05;;;;;;;15.71;29.07;101078.05;1981741;98;31426;-79
2022/05/10 05:11:26;;;;;;;3.33;1.77;;;;;;;15.77;29.14;101085.59;1983952;98;25899;-78
2022/05/10 05:15:00;;;;;;;4.90;1.47;;;;;;;15.87;29.20;101079.15;2099872;92;25892;-79
2022/05/10 05:18:31;;;;;;;5.70;2.35;;;;;;;15.96;29.22;101088.05;2078391;93;25909;-78
2022/05/10 05:22:20;;;;;;;3.55;2.02;;;;;;;16.10;29.26;101089.93;2078101;93;25759;-78
2022/05/10 05:25:53;;;;;;;2.52;1.92;;;;;;;16.19;29.51;101092.25;2011380;95;25735;-78
2022/05/10 05:29:39;;;;;;;5.37;2.15;;;;;;;16.24;29.65;101093.20;2019284;95;34797;-80
2022/05/10 05:33:23;;;;;;;2.90;2.08;;;;;;;16.31;29.88;101091.52;1960993;98;26068;-78
2022/05/10 05:45:20;;;;;;;12.43;1.70;;;;;;;16.88;32.41;101102.69;1974611;97;25832;-78
2022/05/10 05:49:11;;;;;;;4.45;2.00;;;;;;;17.06;32.01;101105.47;1970861;98;25924;-78
2022/05/10 05:53:10;;;;;;;5.77;1.93;;;;;;;17.12;31.61;101094.98;1973377;98;25965;-79
2022/05/10 05:56:43;;;;;;;5.85;1.60;;;;;;;17.22;31.31;101094.63;1990428;95;25816;-79
2022/05/10 06:00:23;;;;;;;4.40;1.77;;;;;;;17.34;30.86;101094.70;2028373;95;25766;-80
2022/05/10 06:03:45;;;;;;;;;;;;;;;17.40;30.35;101097.39;1984562;97;25871;-79
2022/05/10 06:07:28;;;;;;;2.65;1.70;;;;;;;17.50;29.78;101097.45;2048556;95;26580;-78
2022/05/10 06:11:18;;;;;;;10.80;3.30;;;;;;;17.60;29.21;101102.80;2050731;94;25997;-78
2022/05/10 06:15:03;;;;;;;;;;;;;;;;;;;;;
2022/05/10 06:18:30;;;;;;;3.98;1.62;;;;;;;18.33;28.00;101095.70;2127632;92;25932;-79
2022/05/10 06:22:16;;;;;;;11.12;1.45;;;;;;;18.67;28.00;101099.75;2065679;94;25945;-80
2022/05/10 06:26:14;;;;;;;5.00;1.45;;;;;;;19.08;27.55;101091.02;2074689;92;25858;-79
2022/05/10 06:29:55;;;;;;;5.53;1.20;;;;;;;19.67;27.47;101084.78;1963492;99;25910;-75
2022/05/10 06:33:40;;;;;;;2.80;1.10;;;;;;;20.55;26.86;101078.69;1943309;99;25813;-75
2022/05/10 06:42:20;;;;;;;;;;;;;;;;;;;;;
2022/05/10 06:49:18;;;;;;;8.95;1.25;;;;;;;26.23;24.50;101090.84;1842190;105;26123;-81
2022/05/10 06:57:57;;;;;;;2.72;1.30;;;;;;;28.33;22.44;101085.88;1880550;103;25360;-80
2022/05/10 07:06:31;;;;;;;4.37;1.27;;;;;;;30.42;20.15;101095.77;1875375;101;25867;-79
2022/05/10 07:10:39;;;;;;;5.60;1.30;;;;;;;31.36;19.20;101098.77;1887127;102;25932;-80
2022/05/10 07:19:21;;;;;;;9.60;1.40;;;;;;;32.53;17.69;101093.34;1829442;106;25876;-78
2022/05/10 07:22:48;;;;;;;2.05;1.82;;;;;;;33.40;16.81;101097.69;1879588;102;25829;-74
2022/05/10 07:26:43;;;;;;;6.53;1.22;;;;;;;34.06;16.19;101098.59;1864019;103;25953;-75
2022/05/10 07:30:47;;;;;;;8.48;1.22;;;;;;;34.67;15.67;101094.27;1817744;106;26533;-74
2022/05/10 07:34:14;;;;;;;6.12;1.50;;;;;;;35.06;15.05;101089.86;1824916;106;26284;-76
2022/05/10 07:37:53;;;;;;;4.37;1.72;;;;;;;35.22;14.45;101087.84;1821534;107;26184;-75
2022/05/10 07:41:27;;;;;;;5.05;1.55;;;;;;;35.70;14.38;101088.13;1825432;107;25961;-78
2022/05/10 07:45:59;;;;;;;5.90;1.37;;;;;;;36.16;14.03;101084.37;1828690;106;25810;-78
2022/05/10 07:54:25;;;;;;;10.08;2.05;;;;;;;37.17;13.42;101088.20;1874692;101;26079;-85
2022/05/10 07:57:55;;;;;;;12.13;1.75;;;;;;;37.17;13.34;101094.99;1968213;98;25851;-77
2022/05/10 08:01:24;;;;;;;9.23;2.00;;;;;;;36.70;11.10;101089.94;1985614;97;26675;-77
2022/05/10 08:09:45;;;;;;;3.72;1.55;;;;;;;34.87;11.20;101087.52;1963968;99;25683;-78
2022/05/10 08:17:58;;;;;;;7.92;1.40;;;;;;;33.86;11.35;101084.08;1974796;99;25951;-79
2022/05/10 08:21:20;;;;;;;5.72;1.30;;;;;;;33.53;11.03;101080.28;1967323;99;25996;-78
2022/05/10 08:25:09;;;;;;;;;;;;;;;;;;;;;
2022/05/10 08:51:15;;;;;;;;;;;;;;;;;;;;;
2022/05/10 09:14:15;;;;;;;1.75;1.05;;;;;;;32.96;10.56;101030.13;1825812;103;26310;-79
2022/05/10 09:18:42;;;;;;;11.85;1.07;;;;;;;32.88;11.09;101015.70;1777690;109;26013;-77
2022/05/10 09:27:32;;;;;;;;;;;;;;;;;;;;;
2022/05/10 09:36:26;;;;;;;;;;;;;;;;;;;;;
2022/05/10 09:45:02;;;;;;;11.18;1.10;;;;;;;32.63;11.39;100983.38;1782925;107;25487;-81
2022/05/10 09:53:17;;;;;;;6.92;1.00;;;;;;;32.46;11.80;100979.45;1768648;109;25973;-80
2022/05/10 09:56:59;;;;;;;3.22;1.05;;;;;;;32.81;12.21;100973.34;1765790;110;26483;-80
2022/05/10 10:01:10;;;;;;;3.67;1.30;;;;;;;33.19;12.78;100975.56;1793849;107;26543;-80
2022/05/10 10:09:48;;;;;;;3.98;1.20;;;;;;;33.51;12.18;100979.45;1790878;104;26279;-81
2022/05/10 10:14:21;;;;;;;;;;;;;;;;;;;;;
2022/05/10 10:20:21;;;;;;;;;;;;;;;;;;;;;
2022/05/10 10:43:20;;;;;;;4.20;1.42;;;;;;;32.02;12.92;100911.37;1797974;107;25971;-79
2022/05/10 10:47:51;;;;;;;4.28;1.00;;;;;;;31.69;11.67;100906.94;1794517;108;26664;-75
2022/05/10 10:52:06;;;;;;;6.08;1.20;;;;;;;31.04;11.64;100896.08;1747216;111;26004;-78
2022/05/10 10:56:38;;;;;;;3.33;1.02;;;;;;;30.39;11.92;100892.78;1755228;109;26654;-77
2022/05/10 11:00:44;;;;;;;;;;;;;;;;;;;;;
2022/05/10 11:04:17;;;;;;;5.75;1.50;;;;;;;30.94;13.70;100875.13;1845726;105;26523;-76
2022/05/10 11:08:23;;;;;;;5.03;1.32;;;;;;;31.31;13.96;100865.05;1889448;101;26100;-77
2022/05/10 11:12:53;;;;;;;;;;;;;;;;;;;;;
2022/05/10 11:17:22;;;;;;;8.18;1.10;;;;;;;31.18;12.03;100860.80;1948069;100;25841;-76
2022/05/10 11:25:45;;;;;;;3.87;1.10;;;;;;;29.77;11.81;100842.52;1977054;96;25900;-79
2022/05/10 11:29:47;;;;;;;3.42;1.00;;;;;;;29.55;11.79;100832.77;1998527;97;26078;-77
2022/05/10 11:34:10;;;;;;;;;;;;;;;;;;;;;
2022/05/10 11:38:33;;;;;;;7.45;1.22;;;;;;;30.25;12.66;100810.97;2001802;92;26172;-78
2022/05/10 11:42:51;;;;;;;3.12;1.35;;;;;;;31.02;12.41;100805.58;1985751;97;25940;-77
2022/05/10 11:47:17;;;;;;;;;;;;;;;;;;;;;
2022/05/10 11:56:13;;;;;;;;;;;;;;;;;;;;;
2022/05/10 11:59:57;;;;;;;1.60;1.35;;;;;;;29.72;11.80;100770.64;2156040;89;25924;-78
2022/05/10 12:03:49;;;;;;;3.25;1.07;;;;;;;29.70;11.66;100760.43;2127107;91;25978;-78
2022/05/10 12:08:01;;;;;;;6.03;1.30;;;;;;;29.22;12.00;100763.20;2125764;91;25927;-77
2022/05/10 12:24:26;;;;;;;3.65;1.42;;;;;;;29.01;12.49;100741.81;2091852;92;25911;-78
2022/05/10 12:28:45;;;;;;;4.50;1.10;;;;;;;28.90;11.70;100734.23;2095110;92;26127;-78
2022/05/10 12:32:45;;;;;;;8.63;1.20;;;;;;;28.79;12.20;100728.95;2088184;93;25776;-77
2022/05/10 12:36:21;;;;;;;6.50;1.12;;;;;;;28.68;12.01;100730.80;2094321;92;26456;-76
2022/05/10 12:39:45;;;;;;;5.28;1.07;;;;;;;28.69;12.26;100717.81;2079703;93;25808;-76
2022/05/10 12:43:48;;;;;;;1.95;0.88;;;;;;;29.26;12.76;100711.09;2080010;92;25770;-76
2022/05/10 12:48:01;;;;;;;;;;;;;;;;;;;;;
2022/05/10 12:52:13;;;;;;;8.60;1.35;;;;;;;30.20;12.10;100696.50;2131081;88;25786;-78
2022/05/10 12:56:02;;;;;;;5.65;0.98;;;;;;;30.41;12.08;100694.03;2096773;91;25821;-77
2022/05/10 13:00:19;;;;;;;6.00;0.80;;;;;;;30.36;11.95;100696.08;2099787;92;25699;-78
2022/05/10 13:08:41;;;;;;;;;;;;;;;;;;;;;
2022/05/10 13:16:37;;;;;;;;;;;;;;;;;;;;;
2022/05/10 13:20:08;;;;;;;3.02;1.00;;;;;;;28.82;12.03;100666.65;1892957;102;25557;-78
2022/05/10 13:23:46;;;;;;;6.17;1.30;;;;;;;28.69;12.15;100656.09;1829664;104;26095;-77
2022/05/10 13:27:33;;;;;;;4.22;1.10;;;;;;;28.89;12.33;100658.70;1827628;106;26767;-79
2022/05/10 13:31:05;;;;;;;5.75;0.80;;;;;;;28.86;12.41;100650.80;1841758;104;26539;-77
2022/05/10 13:34:59;;;;;;;5.03;1.12;;;;;;;29.31;12.59;100644.13;1791136;107;25899;-78
2022/05/10 13:39:17;;;;;;;;;;;;;;;;;;;;;
2022/05/10 13:43:02;;;;;;;8.37;1.40;;;;;;;29.15;11.60;100637.30;1849383;103;25925;-81
2022/05/10 13:47:29;;;;;;;2.37;0.90;;;;;;;28.92;12.00;100620.98;1841784;105;25754;-78
2022/05/10 13:51:50;;;;;;;1.98;1.17;;;;;;;28.63;12.01;100618.83;1845681;104;26753;-79
2022/05/10 13:55:27;;;;;;;2.00;1.10;;;;;;;28.91;12.43;100611.16;1836952;105;25842;-79
2022/05/10 13:59:01;;;;;;;7.42;1.27;;;;;;;28.94;12.45;100608.33;1877506;100;26112;-79
2022/05/10 14:02:43;;;;;;;2.92;1.02;;;;;;;28.80;12.60;100602.78;1939288;100;26141;-80
2022/05/10 14:06:20;;;;;;;5.87;1.07;;;;;;;28.71;12.59;100592.01;1937410;98;25899;-79
2022/05/10 14:10:04;;;;;;;2.65;1.30;;;;;;;28.38;12.61;100587.75;1941203;100;26867;-79
2022/05/10 14:13:25;;;;;;;4.60;1.00;;;;;;;27.70;12.25;100578.34;1873963;103;25953;-78
2022/05/10 14:16:55;;;;;;;5.55;1.10;;;;;;;27.14;12.71;100576.33;1835295;103;26006;-79
2022/05/10 14:20:38;;;;;;;9.33;1.87;;;;;;;27.11;12.92;100573.74;1815251;105;25910;-81
2022/05/10 14:24:32;;;;;;;9.95;1.55;;;;;;;26.95;12.95;100561.46;1854615;104;25896;-79
2022/05/10 14:28:19;;;;;;;2.95;1.37;;;;;;;26.54;13.08;100560.00;1858615;104;26023;-81
2022/05/10 14:32:14;;;;;;;5.35;0.90;;;;;;;26.18;13.40;100555.58;1855811;105;26259;-80
2022/05/10 14:35:36;;;;;;;4.25;1.05;;;;;;;25.75;13.68;100545.13;1854685;105;25509;-80
2022/05/10 14:39:42;;;;;;;3.65;1.30;;;;;;;25.65;14.07;100543.28;1892043;101;26473;-81
2022/05/10 14:43:33;;;;;;;4.85;1.20;;;;;;;25.65;13.84;100541.48;1917319;101;26223;-81
2022/05/10 14:47:54;;;;;;;7.33;1.07;;;;;;;25.42;14.01;100529.41;1944994;98;25340;-80
2022/05/10 14:52:06;;;;;;;6.17;1.10;;;;;;;25.37;14.19;100520.22;1945925;99;25869;-80
2022/05/10 14:56:39;;;;;;;;;;;;;;;;;;;;;
2022/05/10 15:04:49;;;;;;;4.30;1.00;;;;;;;24.80;14.64;100506.58;1920348;101;25914;-81
2022/05/10 15:08:28;;;;;;;2.80;1.20;;;;;;;24.87;14.87;100502.81;1921090;98;25897;-81
2022/05/10 15:15:26;;;;;;;10.45;0.95;;;;;;;24.90;15.09;100490.68;1985675;97;26211;-79
2022/05/10 15:18:58;;;;;;;4.22;1.25;;;;;;;24.77;15.37;100493.81;1986946;98;25801;-80
2022/05/10 15:22:21;;;;;;;2.33;0.93;;;;;;;24.48;15.71;100491.19;1987155;97;25869;-81
2022/05/10 15:25:57;;;;;;;8.50;1.10;;;;;;;24.22;15.82;100477.31;1988357;97;25892;-81
2022/05/10 15:29:41;;;;;;;8.65;0.90;;;;;;;24.11;16.13;100476.78;2046123;94;25987;-82
2022/05/10 15:33:24;;;;;;;;;;;;;;;;;;;;;
2022/05/10 15:37:16;;;;;;;3.02;1.10;;;;;;;24.15;16.55;100466.44;2117284;91;25768;-81
2022/05/10 15:40:46;;;;;;;8.08;1.25;;;;;;;24.34;16.54;100462.75;2088577;93;25826;-81
2022/05/10 15:44:43;;;;;;;3.40;1.10;;;;;;;24.37;16.51;100456.46;2116913;88;25768;-81
2022/05/10 15:48:22;;;;;;;6.72;0.95;;;;;;;24.28;16.70;100446.95;2063447;92;26064;-81
2022/05/10 15:51:52;;;;;;;10.78;1.30;;;;;;;24.09;16.63;100440.45;2049651;93;25835;-82
2022/05/10 15:55:25;;;;;;;5.15;1.57;;;;;;;23.92;16.88;100437.84;2047476;95;25850;-83
2022/05/10 16:13:31;;;;;;;5.23;0.87;;;;;;;23.03;18.28;100406.27;2386950;78;35159;-83
2022/05/10 16:16:59;;;;;;;1.80;1.00;;;;;;;23.05;18.56;100407.08;2390140;81;26091;-83
2022/05/10 16:20:36;;;;;;;10.30;1.12;;;;;;;23.01;18.50;100399.65;2367470;81;25783;-81
2022/05/10 16:24:15;;;;;;;10.40;1.25;;;;;;;22.89;18.64;100393.78;2280926;84;25737;-83
2022/05/10 16:31:53;;;;;;;4.67;1.05;;;;;;;22.44;19.95;100390.92;2290242;84;25666;-83
2022/05/10 16:35:43;;;;;;;5.28;1.35;;;;;;;22.25;19.36;100375.92;2287063;84;25712;-82
2022/05/10 16:39:17;;;;;;;2.83;1.00;;;;;;;22.27;20.69;100377.20;2275359;85;25809;-82
2022/05/10 16:46:43;;;;;;;5.42;1.30;;;;;;;21.87;19.38;100362.21;2102009;91;25810;-82
2022/05/10 16:50:13;;;;;;;5.45;1.72;;;;;;;21.69;19.54;100367.00;2094876;92;25774;-82
2022/05/10 16:54:11;;;;;;;1.77;1.05;;;;;;;21.60;19.41;100365.00;2004907;97;26526;-80
2022/05/10 16:57:38;;;;;;;4.08;1.00;;;;;;;21.59;19.58;100360.16;2056296;95;26054;-82
2022/05/10 17:01:24;;;;;;;5.80;1.70;;;;;;;21.52;19.68;100364.31;2058921;95;26017;-82
2022/05/10 17:04:55;;;;;;;8.28;1.00;;;;;;;21.38;19.80;100353.54;2052143;94;25818;-82
2022/05/10 17:08:35;;;;;;;11.08;1.02;;;;;;;21.37;20.05;100354.45;2055052;94;25848;-80
2022/05/10 17:12:35;;;;;;;5.35;1.00;;;;;;;21.41;20.33;100351.28;2049547;94;25919;-81
2022/05/10 17:16:23;;;;;;;4.30;1.27;;;;;;;21.42;23.43;100347.26;2071157;89;26017;-81
2022/05/10 17:19:49;;;;;;;1.65;1.10;;;;;;;21.44;22.27;100345.45;2192043;87;25967;-81
2022/05/10 17:23:20;;;;;;;2.37;0.90;;;;;;;21.36;22.00;100343.86;2199679;87;25936;-83
2022/05/10 17:31:06;;;;;;;2.17;1.10;;;;;;;21.27;22.28;100346.70;2161653;91;25813;-81
2022/05/10 17:35:01;;;;;;;4.15;1.27;;;;;;;21.21;21.84;100332.65;2084379;93;25817;-82
2022/05/10 17:38:31;;;;;;;1.35;1.00;;;;;;;21.13;22.07;100338.58;2097514;92;26768;-83
2022/05/10 17:42:00;;;;;;;4.83;1.27;;;;;;;21.05;22.25;100339.16;2107733;92;25819;-85
2022/05/10 17:45:42;;;;;;;8.95;1.50;;;;;;;20.99;22.20;100337.53;2095798;92;25986;-84
2022/05/10 17:49:11;;;;;;;5.08;0.88;;;;;;;20.96;23.56;100334.94;2100621;92;25746;-84
2022/05/10 17:53:00;;;;;;;5.17;1.22;;;;;;;20.92;22.43;100335.01;2081175;91;26122;-82
2022/05/10 17:56:31;;;;;;;13.65;1.00;;;;;;;20.83;22.07;100332.11;2095711;93;25933;-73
2022/05/10 18:00:20;;;;;;;;;;;;;;;;;;;;;
2022/05/10 18:03:50;;;;;;;9.73;1.70;;;;;;;20.67;21.96;100325.34;2093370;92;25949;-80
2022/05/10 18:07:37;;;;;;;12.58;1.62;;;;;;;20.59;21.55;100329.47;2093644;92;25811;-81
2022/05/10 18:11:01;;;;;;;;;;;;;;;20.52;21.72;100330.48;2086669;92;25838;-81
2022/05/10 18:14:33;;;;;;;14.63;1.15;;;;;;;20.46;21.36;100330.10;2071129;91;25894;-82
2022/05/10 18:18:24;;;;;;;2.98;1.00;;;;;;;20.38;21.43;100329.34;2036411;94;25908;-80
2022/05/10 18:21:58;;;;;;;6.10;1.42;;;;;;;20.33;21.51;100333.00;2045505;90;25819;-82
2022/05/10 18:25:46;;;;;;;5.58;1.30;;;;;;;20.29;22.26;100332.17;2026023;94;25450;-81
2022/05/10 18:29:24;;;;;;;3.00;1.70;;;;;;;20.29;22.46;100335.69;2040210;92;25804;-80
2022/05/10 18:33:17;;;;;;;4.67;1.55;;;;;;;20.25;22.21;100335.33;2066229;92;25804;-81
2022/05/10 18:36:56;;;;;;;;;;;;;;;;;;;;;
2022/05/10 18:40:29;;;;;;;10.43;1.75;;;;;;;20.13;23.72;100339.48;1976915;97;25817;-85
2022/05/10 18:44:20;;;;;;;6.83;1.75;;;;;;;20.22;23.80;100336.70;1923004;99;26076;-84
2022/05/10 18:48:44;;;;;;;5.83;1.40;;;;;;;20.29;24.05;100339.66;1978126;97;25797;-84
2022/05/10 18:52:24;;;;;;;6.85;1.72;;;;;;;20.35;23.99;100338.70;1981214;96;25427;-83
2022/05/10 18:59:28;;;;;;;5.53;1.95;;;;;;;20.36;23.93;100333.81;2012394;96;25443;-82
2022/05/10 19:02:53;;;;;;;6.92;2.02;;;;;;;20.36;23.98;100338.23;2005925;96;26118;-81
2022/05/10 19:06:17;;;;;;;8.35;1.77;;;;;;;20.37;23.99;100337.33;2042763;94;26011;-80
2022/05/10 19:09:54;;;;;;;14.18;1.95;;;;;;;20.34;23.83;100330.76;2029647;94;25876;-81
2022/05/10 19:13:36;;;;;;;15.00;2.20;;;;;;;20.34;23.97;100334.28;2018378;96;25819;-81
2022/05/10 19:17:00;;;;;;;5.00;1.60;;;;;;;20.34;23.90;100333.41;2009170;97;25845;-83
2022/05/10 19:20:24;;;;;;;5.37;1.60;;;;;;;20.29;23.89;100333.05;2035708;94;25721;-82
2022/05/10 19:23:47;;;;;;;5.45;2.20;;;;;;;20.27;23.96;100336.16;2083139;92;25886;-81
2022/05/10 19:27:08;;;;;;;3.52;1.75;;;;;;;20.26;24.01;100329.58;2115788;92;25849;-82
2022/05/10 19:30:42;;;;;;;4.90;2.10;;;;;;;20.26;24.10;100330.90;2172400;88;25737;-82
2022/05/10 19:34:18;;;;;;;7.12;1.87;;;;;;;20.23;24.25;100327.84;2247151;85;25831;-81
2022/05/10 19:37:49;;;;;;;7.70;2.35;;;;;;;20.19;24.18;100323.51;2265934;86;25986;-83
2022/05/10 19:41:20;;;;;;;8.00;1.87;;;;;;;20.18;24.24;100323.52;2273710;86;25342;-82
2022/05/10 19:44:53;;;;;;;4.85;2.05;;;;;;;20.15;24.37;100327.11;2261794;86;25779;-82
2022/05/10 19:48:16;;;;;;;;;;;;;;;20.13;24.31;100323.61;2267255;85;26333;-83
2022/05/10 19:51:42;;;;;;;9.48;2.42;;;;;;;20.11;24.48;100327.17;2220788;87;30938;-82
2022/05/10 19:55:12;;;;;;;9.30;2.58;;;;;;;20.13;24.52;100327.58;2255602;86;25519;-88
2022/05/10 19:58:40;;;;;;;4.30;2.08;;;;;;;20.23;24.76;100323.88;2268276;86;25755;-89
2022/05/10 20:06:12;;;;;;;6.25;3.25;;;;;;;20.35;25.07;100322.81;2187853;88;26025;-87
2022/05/10 20:09:41;;;;;;;5.62;2.52;;;;;;;20.37;25.05;100317.02;2160687;89;25350;-87
2022/05/10 20:13:11;;;;;;;5.22;1.77;;;;;;;20.39;25.22;100324.49;2170321;89;25720;-83
2022/05/10 20:16:36;;;;;;;8.43;2.58;;;;;;;20.42;25.29;100317.83;2073640;94;25886;-84
2022/05/10 20:20:08;;;;;;;3.70;1.98;;;;;;;20.42;25.36;100318.28;2074185;94;26990;-86
2022/05/10 20:23:38;;;;;;;7.22;2.08;;;;;;;20.42;25.33;100318.28;2051200;94;25793;-85
2022/05/10 20:27:08;;;;;;;7.10;2.37;;;;;;;20.41;25.35;100308.11;2072852;93;25939;-84
2022/05/10 20:35:34;;;;;;;3.25;2.20;;;;;;;20.45;25.54;100307.60;2092689;93;25779;-85
2022/05/10 20:43:02;;;;;;;5.10;2.75;;;;;;;20.37;25.56;100287.02;2031514;95;25865;-84
2022/05/10 20:51:16;;;;;;;;;;;;;;;;;;;;;
2022/05/10 20:58:50;;;;;;;7.33;2.65;;;;;;;20.32;25.91;100286.22;2003474;98;25861;-89
2022/05/10 21:02:16;;;;;;;3.80;2.05;;;;;;;20.29;25.97;100284.52;2007185;97;25789;-83
2022/05/10 21:06:18;;;;;;;5.90;2.70;;;;;;;20.26;26.04;100290.73;2008848;97;25933;-83
2022/05/10 21:17:51;;;;;;;;;;;;;;;20.20;26.23;100275.41;1888947;100;26124;-85
2022/05/10 21:33:28;;;;;;;10.45;5.20;;;;;;;20.13;26.31;100281.71;1937104;99;25996;-88
2022/05/10 21:37:20;;;;;;;8.88;4.30;;;;;;;20.09;26.26;100277.37;1936124;99;25746;-85
2022/05/10 21:41:10;;;;;;;8.38;4.58;;;;;;;20.06;26.35;100279.62;1967545;98;26126;-88
2022/05/10 21:44:42;;;;;;;5.05;3.92;;;;;;;20.00;26.30;100270.45;1950582;99;25845;-89
2022/05/10 21:48:45;;;;;;;5.80;3.85;;;;;;;19.94;26.38;100266.12;1962132;98;25962;-88
2022/05/10 21:52:23;;;;;;;11.12;3.15;;;;;;;19.90;26.35;100260.92;1943657;100;25964;-83
2022/05/10 21:56:19;;;;;;;4.50;2.75;;;;;;;19.87;26.38;100270.23;1939193;100;25932;-90
2022/05/10 21:59:57;;;;;;;6.78;2.92;;;;;;;19.85;26.40;100266.76;1943151;98;25982;-91
2022/05/10 22:03:32;;;;;;;;;;;;;;;;;;;;;
2022/05/10 22:06:59;;;;;;;5.10;2.30;;;;;;;19.74;26.45;100254.58;2098466;92;25790;-82
2022/05/10 22:10:26;;;;;;;5.40;2.35;;;;;;;19.70;26.50;100253.31;2101006;92;25566;-85
2022/05/10 22:14:16;;;;;;;7.95;2.42;;;;;;;19.65;26.65;100248.10;2139123;89;26029;-85
2022/05/10 22:18:42;;;;;;;3.40;2.60;;;;;;;19.62;26.66;100246.79;2169665;88;25749;-88
2022/05/10 22:22:13;;;;;;;5.33;2.50;;;;;;;19.57;26.77;100244.23;2088139;91;26153;-90
2022/05/10 22:26:15;;;;;;;3.60;2.17;;;;;;;19.53;26.87;100235.89;2089106;91;26403;-83
2022/05/10 22:29:51;;;;;;;6.40;2.62;;;;;;;19.51;26.95;100239.48;2064842;93;26054;-88
2022/05/10 22:33:47;;;;;;;;;;;;;;;;;;;;;
2022/05/10 22:36:44;;;;;;;2.67;2.17;;;;;;;19.43;27.20;100239.58;2065456;93;25822;-89
2022/05/10 22:40:27;;;;;;;8.30;3.20;;;;;;;19.38;27.34;100232.63;2074247;94;25794;-88
2022/05/10 22:43:51;;;;;;;3.67;2.87;;;;;;;19.34;27.46;100227.84;2070458;94;25775;-85
2022/05/10 22:47:28;;;;;;;2.77;2.33;;;;;;;19.33;27.52;100224.75;2123175;86;25874;-89
2022/05/10 22:51:06;;;;;;;6.22;2.92;;;;;;;19.31;27.67;100223.47;2150333;89;25719;-89
2022/05/10 22:54:49;;;;;;;4.87;3.20;;;;;;;19.25;27.75;100214.30;2101588;92;25919;-91
2022/05/10 22:58:41;;;;;;;;;;;;;;;;;;;;;
2022/05/10 23:02:16;;;;;;;6.33;3.00;;;;;;;19.12;27.95;100214.05;2008865;95;25793;-88
2022/05/10 23:05:45;;;;;;;6.87;3.62;;;;;;;19.07;28.00;100204.88;2029068;95;26505;-92
2022/05/10 23:09:15;;;;;;;4.42;2.90;;;;;;;19.00;28.13;100193.06;2037775;95;25815;-89
2022/05/10 23:13:01;;;;;;;4.87;2.40;;;;;;;18.96;28.20;100191.38;2038603;95;25830;-91
2022/05/10 23:20:09;;;;;;;3.50;2.72;;;;;;;18.90;28.38;100183.52;2002126;96;25782;-87
2022/05/10 23:24:07;;;;;;;;;;;;;;;;;;;;;
2022/05/10 23:32:11;;;;;;;5.78;2.80;;;;;;;18.77;28.65;100188.98;2064215;93;25838;-89
2022/05/10 23:35:49;;;;;;;6.42;2.65;;;;;;;18.69;28.78;100184.66;2139167;89;25724;-91